Tuesday, January 23, 2018, 6:18 AM CST
Back to Local

KEMP, Emporia Municipal Airport

Location: Emporia, KS, United States Lat: 38.333
Local Time: 6:18 AM CST (12:18 GMT) Lon: -96.2
Time Zone: US/Central Elev: 1207 ft

Show me the last for .
Show Decoded

2018-01-23 05:53 METAR KEMP 231153Z AUTO 31009KT 9SM OVC010 M04/M06 A3010 RMK AO2 SLP210 70003
                 T10391061 11011 21056 51022 =
2018-01-23 04:53 METAR KEMP 231053Z AUTO 31011KT 9SM BKN011 M04/M07 A3008 RMK AO2 SLP201
                 T10441067 =
2018-01-23 03:53 METAR KEMP 230953Z AUTO 34007KT 8SM FEW016 M04/M07 A3007 RMK AO2 SLP196
                 T10441067 =
2018-01-23 03:33 METAR KEMP 230933Z AUTO 31008KT 9SM SCT025 M04/M07 A3006 RMK AO2 T10391067 =
2018-01-23 02:53 METAR KEMP 230853Z AUTO 32011KT 10SM BKN022 M03/M06 A3004 RMK AO2 SLP186
                 T10281061 53027 =
2018-01-23 02:23 METAR KEMP 230823Z AUTO 32014G20KT 10SM SCT013 OVC021 M02/M06 A3002 RMK AO2
                 T10221056 =
2018-01-23 01:53 METAR KEMP 230753Z AUTO 30014G20KT 10SM BKN013 OVC018 M02/M06 A3001 RMK AO2
                 SLP174 T10171056 =
2018-01-23 00:53 METAR KEMP 230653Z AUTO 31010KT 10SM OVC021 M02/M06 A2998 RMK AO2 SLP164
                 T10221056 =
2018-01-23 00:38 METAR KEMP 230638Z AUTO 32012KT 10SM BKN021 M02/M06 A2997 =
2018-01-22 23:53 METAR KEMP 230553Z AUTO 31013G24KT 10SM FEW024 M01/M05 A2995 RMK AO2 PK WND
                 32027/0533 SLP156 60000 T10111050 10006 21011 400391011 53026 =
2018-01-22 22:53 METAR KEMP 230453Z AUTO 32013G21KT 10SM OVC031 01/M03 A2992 RMK AO2 PK WND
                 31029/0357 SLP143 T00061033 =
2018-01-22 22:24 METAR KEMP 230424Z AUTO 32015G24KT 10SM SCT026 OVC033 01/M03 A2991 =
2018-01-22 21:53 METAR KEMP 230353Z AUTO 31017G24KT 10SM OVC024 01/M03 A2990 RMK AO2 PK WND
                 32034/0259 SLP136 T00061033 =
2018-01-22 20:53 METAR KEMP 230253Z AUTO 32021G32KT 10SM OVC023 01/M04 A2987 RMK AO2 PK WND
                 32034/0200 SLP127 60000 T00061039 51045 =
2018-01-22 19:53 METAR KEMP 230153Z AUTO 31020G30KT 10SM OVC023 00/M03 A2983 RMK AO2 PK WND
                 31037/0140 UPB06E25SNB05E06 SLP112 P0000 T00001033 =
2018-01-22 18:53 METAR KEMP 230053Z AUTO 31020G30KT 10SM OVC024 00/M03 A2979 RMK AO2 PK WND
                 33032/2359 UPB13E15SNE13 SLP099 P0000 T00001028 =
2018-01-22 18:21 METAR KEMP 230021Z AUTO 31018G32KT 10SM FEW018 BKN024 OVC030 00/M03 A2976 RMK
                 AO2 PK WND 33032/2359 UPB13E15SNE13 P0000 T00001028 =
2018-01-22 18:09 METAR KEMP 230009Z AUTO 31017G32KT 5SM -SN BR FEW013 SCT021 OVC032 00/M02 A2975
                 RMK AO2 PK WND 33032/2359 P0000 T00001022 =
2018-01-22 18:00 METAR KEMP 230000Z AUTO 32023G32KT 4SM -SN BR FEW013 BKN029 OVC035 00/M02 A2974
                 =
2018-01-22 17:53 METAR KEMP 222353Z AUTO 31019G28KT 2 1/2SM -SN BR FEW013 BKN028 OVC036 00/M02
                 A2974 RMK AO2 PK WND 31030/2316 UPB13E17SNE13B17 SLP081 P0000 60000 T00001022
                 10011 20000 51027 =
2018-01-22 17:51 METAR KEMP 222351Z AUTO 31018G28KT 2 1/2SM -SN BR SCT013 BKN028 OVC036 00/M02
                 A2974 RMK AO2 PK WND 31030/2316 UPB13E17SNE13B17 P0000 =
2018-01-22 17:44 METAR KEMP 222344Z AUTO 31019G28KT 1 3/4SM -SN BR SCT013 BKN030 OVC036 00/M02
                 A2973 RMK AO2 PK WND 31030/2316 UPB13E17SNE13B17 P0000 T00001017 =
2018-01-22 17:29 METAR KEMP 222329Z AUTO 31018G26KT 1 3/4SM -SN BR FEW012 BKN029 OVC034 00/M02
                 A2972 RMK AO2 PK WND 31030/2316 UPB13E17SNE13B17 P0000 T00001022 =
2018-01-22 17:23 METAR KEMP 222323Z AUTO 31016G30KT 2 1/2SM -SN BR FEW016 BKN030 OVC037 00/M02
                 A2972 RMK AO2 PK WND 31030/2316 UPB13E17SNE13B17 P0000 T00001022 =
2018-01-22 17:14 METAR KEMP 222314Z AUTO 32019G28KT 5SM UP BR FEW013 BKN026 OVC039 00/M02 A2971
                 RMK AO2 PK WND 31028/2258 UPB13SNE13 P0000 T00001022 =
2018-01-22 17:00 METAR KEMP 222300Z AUTO 31017G29KT 3SM -SN BR FEW015 SCT021 OVC037 00/M02 A2970
                 RMK AO2 PK WND 31028/2258 P0000 T00001022 =
2018-01-22 16:53 METAR KEMP 222253Z AUTO 31020G29KT 2 1/2SM -SN BR FEW015 BKN032 OVC039 00/M02
                 A2969 RMK AO2 PK WND 31036/2219 UPB22E26SNE22B26 SLP065 P0000 T00001022 =
2018-01-22 16:41 METAR KEMP 222241Z AUTO 30018G32KT 2SM -SN BR SCT017 BKN022 OVC036 00/M02 A2968
                 RMK AO2 PK WND 31036/2219 UPB22E26SNE22B26 P0000 T00001022 =
2018-01-22 16:34 METAR KEMP 222234Z AUTO 30017G32KT 2SM -SN BR SCT017 BKN034 OVC048 00/M02 A2967
                 RMK AO2 PK WND 31036/2219 UPB22E26SNE22B26 P0000 T00001022 =
2018-01-22 15:53 METAR KEMP 222153Z AUTO 30016G28KT 3SM -SN BR FEW009 BKN020 OVC050 01/M02 A2965
                 RMK AO2 PK WND 29032/2113 SLP054 P0000 T00061017 =
2018-01-22 15:44 METAR KEMP 222144Z AUTO 31019G27KT 2SM -SN BR FEW009 BKN014 OVC048 00/M02 A2965
                 RMK AO2 PK WND 29032/2113 P0000 T00001017 =
2018-01-22 15:35 METAR KEMP 222135Z AUTO 30014G29KT 1 3/4SM -SN BR SCT012 BKN017 OVC024 01/M02
                 A2964 RMK AO2 PK WND 29032/2113 P0000 T00061017 =
2018-01-22 15:30 METAR KEMP 222130Z AUTO 30015G30KT 2 1/2SM -SN BR BKN014 BKN019 OVC036 01/M02
                 A2963 RMK AO2 PK WND 29032/2113 P0000 T00061017 =
2018-01-22 15:25 METAR KEMP 222125Z AUTO 30019G31KT 4SM -SN FEW012 BKN017 OVC027 01/M02 A2963 RMK
                 AO2 PK WND 29032/2113 P0000 T00061022 =
2018-01-22 15:16 METAR KEMP 222116Z AUTO 29022G32KT 2SM -SN BR SCT014 BKN018 OVC033 01/M02 A2962
                 RMK AO2 PK WND 29032/2113 P0000 T00061017 =
2018-01-22 15:13 METAR KEMP 222113Z AUTO 29024G32KT 1 1/2SM -SN BR BKN014 BKN024 OVC033 01/M02
                 A2961 RMK AO2 PK WND 29032/2113 P0000 T00061017 =
2018-01-22 15:06 METAR KEMP 222106Z AUTO 29018G29KT 1SM -SN BR BKN014 BKN024 OVC032 00/M02 A2961
                 RMK AO2 PK WND 31031/2054 P0000 T00001017 =
2018-01-22 14:53 METAR KEMP 222053Z AUTO 31015G26KT 1 1/4SM -SN BR BKN014 BKN022 OVC028 01/M02
                 A2960 RMK AO2 PK WND 29035/2015 SNB29 SLP034 P0000 60000 T00061017 51014 =
2018-01-22 14:43 METAR KEMP 222043Z AUTO 30016G30KT 1 3/4SM -SN BR BKN013 BKN021 OVC042 00/M02
                 A2960 RMK AO2 PK WND 29035/2015 SNB29 P0000 T00001022 =
2018-01-22 14:41 METAR KEMP 222041Z AUTO 30022G30KT 2SM -SN SCT013 BKN021 OVC042 01/M02 A2960 RMK
                 AO2 PK WND 29035/2015 SNB29 P0000 T00061022 =
2018-01-22 13:53 METAR KEMP 221953Z AUTO 30017G29KT 9SM BKN016 OVC023 01/M02 A2957 RMK AO2 PK WND
                 30036/1906 SLP025 T00061022 =
2018-01-22 13:22 METAR KEMP 221922Z AUTO 30018G25KT 10SM OVC017 01/M02 A2957 RMK AO2 PK WND
                 30036/1906 T00061017 =
2018-01-22 12:53 METAR KEMP 221853Z AUTO 29023G30KT 9SM OVC014 01/M01 A2956 RMK AO2 PK WND
                 29032/1756 SLP020 T00061011 =
2018-01-22 12:01 METAR KEMP 221801Z AUTO 29019G32KT 10SM OVC011 01/M01 A2954 RMK AO2 PK WND
                 29032/1756 T00111006 =
2018-01-22 11:53 METAR KEMP 221753Z AUTO 29017G25KT 10SM OVC009 01/00 A2954 RMK AO2 PK WND
                 28027/1708 SNE44 CIG 006V015 SLP012 P0001 60003 T00110000 10022 20000 51024 =
2018-01-22 11:41 METAR KEMP 221741Z AUTO 29014G22KT 5SM -SN BR FEW004 OVC009 01/00 A2954 =
2018-01-22 11:33 METAR KEMP 221733Z AUTO 29016G20KT 2SM -SN BR OVC007 01/M01 A2954 RMK AO2 PK WND
                 28027/1708 P0001 T00061006 =
2018-01-22 11:30 METAR KEMP 221730Z AUTO 29014G20KT 1 1/4SM -SN BR OVC007 01/M01 A2954 RMK AO2 PK
                 WND 28027/1708 P0001 T00061006 =
2018-01-22 11:13 METAR KEMP 221713Z AUTO 29018G27KT 3/4SM -SN BR OVC006 01/M01 A2954 RMK AO2 PK
                 WND 28027/1708 CIG 003V010 P0000 T00061006 =
2018-01-22 11:10 METAR KEMP 221710Z AUTO 29017G27KT 1 3/4SM -SN BR OVC006 01/M01 A2953 =
2018-01-22 11:07 METAR KEMP 221707Z AUTO 28019G26KT 3SM -SN BR OVC006 01/00 A2953 RMK AO2 PK WND
                 29026/1704 P0000 T00110000 =
2018-01-22 10:57 METAR KEMP 221657Z AUTO 28014G22KT 2SM -SN BR BKN006 OVC010 01/00 A2953 RMK AO2
                 P0000 T00110000 =
2018-01-22 10:53 METAR KEMP 221653Z AUTO 28016G22KT 1 1/4SM -SN BR OVC008 01/M01 A2953 RMK AO2
                 RAB19E42SNB42 SLP008 P0002 T00061006 =
2018-01-22 10:48 METAR KEMP 221648Z AUTO 29014G23KT 1SM -SN BR OVC008 01/M01 A2953 RMK AO2
                 RAB19E42SNB42 P0001 =
2018-01-22 10:43 METAR KEMP 221643Z AUTO 28015G23KT 1 3/4SM -SN BR OVC008 01/00 A2952 RMK AO2
                 RAB19E42SNB42 P0001 T00110000 =
2018-01-22 09:53 METAR KEMP 221553Z AUTO 24009KT 10SM OVC008 02/01 A2949 RMK AO2 RAB02E20UPB20E28
                 CIG 006V012 SLP992 P0000 T00220011 =
2018-01-22 08:53 METAR KEMP 221453Z AUTO 24013KT 10SM OVC011 02/00 A2947 RMK AO2 SLP985 T00220000
                 53001 =
2018-01-22 08:30 METAR KEMP 221430Z AUTO 23012KT 10SM OVC013 02/M01 A2947 RMK AO2 T00221006 =
2018-01-22 07:53 METAR KEMP 221353Z AUTO 23013KT 10SM OVC016 02/M01 A2946 RMK AO2 SLP983
                 T00221006 =
2018-01-22 06:53 METAR KEMP 221253Z AUTO 22013KT 10SM OVC018 02/M01 A2946 RMK AO2 SLP982
                 T00221006 =

Support USWX by starting your Amazon purchase here.